createdAt,value
2022-10-07T00:04:58.536Z,102240.25
2022-10-07T00:10:00.039Z,102236.75
2022-10-07T00:15:01.510Z,102232.47
2022-10-07T00:20:03.303Z,102225.66
2022-10-07T00:25:05.147Z,102218.34
2022-10-07T00:30:07.138Z,102218.31
2022-10-07T00:35:08.807Z,102218.75
2022-10-07T00:40:12.867Z,102210.53
2022-10-07T00:45:16.916Z,102209.50
2022-10-07T00:50:27.712Z,102204.22
2022-10-07T00:55:31.613Z,102196.47
2022-10-07T01:00:33.120Z,102199.91
2022-10-07T01:05:34.659Z,102189.53
2022-10-07T01:10:51.390Z,102183.56
2022-10-07T01:16:13.801Z,102178.34
2022-10-07T01:21:39.167Z,102173.03
2022-10-07T01:27:09.453Z,102160.66
2022-10-07T01:32:19.901Z,102148.78
2022-10-07T01:37:24.089Z,102145.50
2022-10-07T01:42:26.325Z,102145.59
2022-10-07T01:47:28.607Z,102138.03
2022-10-07T01:52:45.725Z,102129.75
2022-10-07T01:57:47.367Z,102120.50
2022-10-07T02:03:07.651Z,102121.31
2022-10-07T02:08:44.038Z,102111.84
2022-10-07T02:14:08.232Z,102112.34
2022-10-07T02:19:20.240Z,102096.25
2022-10-07T02:24:25.795Z,102090.84
2022-10-07T02:29:32.957Z,102088.56
2022-10-07T02:34:35.830Z,102076.69
2022-10-07T02:39:37.668Z,102072.56
2022-10-07T02:44:47.239Z,102066.19
2022-10-07T02:49:53.514Z,102062.50
2022-10-07T02:54:58.192Z,102068.25
2022-10-07T03:00:03.572Z,102057.94
2022-10-07T03:05:16.320Z,102054.00
2022-10-07T03:10:18.300Z,102051.97
2022-10-07T03:15:19.899Z,102049.50
2022-10-07T03:20:22.187Z,102046.19
2022-10-07T03:25:25.552Z,102041.78
2022-10-07T03:30:28.677Z,102039.53
2022-10-07T03:35:30.330Z,102037.63
2022-10-07T03:40:32.298Z,102035.66
2022-10-07T03:45:33.917Z,102031.22
2022-10-07T03:50:35.661Z,102025.00
2022-10-07T03:55:37.369Z,102027.81
2022-10-07T04:00:39.439Z,102030.09
2022-10-07T04:05:41.651Z,102024.81
2022-10-07T04:10:43.243Z,102018.56
2022-10-07T04:15:45.060Z,102024.16
2022-10-07T04:20:47.107Z,102016.72
2022-10-07T04:25:48.725Z,102012.28
2022-10-07T04:30:53.484Z,102012.56
2022-10-07T04:36:05.812Z,102008.91
2022-10-07T04:41:08.112Z,102002.75
2022-10-07T04:46:12.272Z,101999.56
2022-10-07T04:51:17.891Z,101996.22
2022-10-07T04:56:23.301Z,101987.53
2022-10-07T05:01:25.050Z,101978.63
2022-10-07T05:06:26.664Z,101985.22
2022-10-07T05:11:28.316Z,101981.63
2022-10-07T05:16:36.152Z,101979.28
2022-10-07T05:21:39.088Z,101974.66
2022-10-07T05:26:40.685Z,101979.44
2022-10-07T05:31:43.905Z,101980.38
2022-10-07T05:36:47.777Z,101974.31
2022-10-07T05:41:49.352Z,101977.19
2022-10-07T05:46:54.238Z,101978.56
2022-10-07T05:51:56.822Z,101970.91
2022-10-07T05:56:58.801Z,101965.84
2022-10-07T06:02:00.803Z,101957.78
2022-10-07T06:07:03.437Z,101951.88
2022-10-07T06:12:05.234Z,101951.34
2022-10-07T06:17:08.312Z,101945.66
2022-10-07T06:22:10.590Z,101936.91
2022-10-07T06:27:14.141Z,101937.25
2022-10-07T06:32:16.888Z,101944.59
2022-10-07T06:37:19.292Z,101948.25
2022-10-07T06:42:20.912Z,101956.03
2022-10-07T06:47:54.217Z,101966.25
2022-10-07T06:52:57.456Z,101961.59
2022-10-07T06:58:00.879Z,101961.84
2022-10-07T07:03:02.734Z,101962.19
2022-10-07T07:08:05.125Z,101971.16
2022-10-07T07:13:06.967Z,101964.78
2022-10-07T07:18:10.172Z,101973.00
2022-10-07T07:23:12.838Z,101966.63
2022-10-07T07:28:16.432Z,101959.13
2022-10-07T07:33:19.202Z,101967.25
2022-10-07T07:38:24.749Z,101969.13
2022-10-07T07:43:28.147Z,101969.63
2022-10-07T07:48:30.129Z,101968.44
2022-10-07T07:53:31.875Z,101964.44
2022-10-07T07:58:33.713Z,101963.88
2022-10-07T08:03:36.556Z,101961.53
2022-10-07T08:08:39.566Z,101953.97
2022-10-07T08:13:41.583Z,101949.72
2022-10-07T08:18:48.594Z,101956.28
2022-10-07T08:23:58.941Z,101943.97
2022-10-07T08:29:05.077Z,101949.84
2022-10-07T08:34:06.900Z,101952.75
2022-10-07T08:39:09.675Z,101940.31
2022-10-07T08:44:16.658Z,101938.63
2022-10-07T08:49:30.198Z,101930.91
2022-10-07T08:54:31.796Z,101920.91
2022-10-07T08:59:34.660Z,101924.63
2022-10-07T09:04:57.653Z,101911.50
2022-10-07T09:10:23.890Z,101908.59
2022-10-07T09:15:31.465Z,101904.69
2022-10-07T09:20:43.050Z,101895.38
2022-10-07T09:25:44.648Z,101895.19
2022-10-07T09:30:46.225Z,101888.41
2022-10-07T09:35:57.470Z,101887.09
2022-10-07T09:41:15.802Z,101875.81
2022-10-07T09:46:34.040Z,101869.56
2022-10-07T09:51:35.653Z,101858.56
2022-10-07T09:56:43.956Z,101854.38
2022-10-07T10:02:02.236Z,101850.13
2022-10-07T10:07:18.512Z,101844.97
2022-10-07T10:12:21.701Z,101837.81
2022-10-07T10:17:39.581Z,101832.41
2022-10-07T10:22:41.118Z,101828.38
2022-10-07T10:27:53.272Z,101809.97
2022-10-07T10:32:57.623Z,101805.50
2022-10-07T10:38:34.062Z,101801.31
2022-10-07T10:43:53.925Z,101792.06
2022-10-07T10:49:01.139Z,101780.81
2022-10-07T10:54:24.300Z,101766.09
2022-10-07T10:59:48.251Z,101754.03
2022-10-07T11:04:58.290Z,101746.63
2022-10-07T11:10:05.442Z,101743.38
2022-10-07T11:15:22.094Z,101733.34
2022-10-07T11:20:41.021Z,101722.81
2022-10-07T11:25:57.286Z,101704.00
2022-10-07T11:31:30.366Z,101694.00
2022-10-07T11:36:50.765Z,101695.19
2022-10-07T11:42:01.163Z,101668.09
2022-10-07T11:47:06.098Z,101660.75
2022-10-07T11:52:27.393Z,101657.53
2022-10-07T11:57:32.798Z,101654.22
2022-10-07T12:02:44.316Z,101638.75
2022-10-07T12:07:58.661Z,101621.84
2022-10-07T12:13:10.479Z,101615.47
2022-10-07T12:18:11.897Z,101598.66
2022-10-07T12:23:19.743Z,101599.25
2022-10-07T12:28:47.185Z,101574.38
2022-10-07T12:34:07.280Z,101555.06
2022-10-07T12:39:08.719Z,101555.44
2022-10-07T12:49:50.093Z,101535.03
2022-10-07T12:54:56.699Z,101524.59
2022-10-07T13:00:17.600Z,101523.00
2022-10-07T13:05:19.063Z,101508.16
2022-10-07T13:10:45.073Z,101509.31
2022-10-07T13:15:58.099Z,101500.22
2022-10-07T13:21:14.339Z,101494.44
2022-10-07T13:26:15.858Z,101483.34
2022-10-07T13:31:23.307Z,101473.03
2022-10-07T13:36:29.111Z,101458.78
2022-10-07T13:41:30.733Z,101450.75
2022-10-07T13:46:36.055Z,101450.22
2022-10-07T13:51:41.231Z,101439.88
2022-10-07T13:56:43.596Z,101431.66
2022-10-07T14:01:51.723Z,101422.59
2022-10-07T14:06:56.015Z,101411.97
2022-10-07T14:17:47.162Z,101395.88
2022-10-07T14:22:52.137Z,101386.66
2022-10-07T14:27:56.690Z,101378.72
2022-10-07T14:33:12.392Z,101367.56
2022-10-07T14:38:26.313Z,101359.16
2022-10-07T14:43:31.865Z,101354.81
2022-10-07T14:48:33.466Z,101353.56
2022-10-07T14:53:36.564Z,101339.59
2022-10-07T14:58:38.133Z,101339.78
2022-10-07T15:03:39.703Z,101335.75
2022-10-07T15:08:41.205Z,101329.81
2022-10-07T15:13:42.966Z,101325.09
2022-10-07T15:18:49.548Z,101318.06
2022-10-07T15:23:54.145Z,101301.91
2022-10-07T15:28:57.248Z,101296.34
2022-10-07T15:33:58.776Z,101289.75
2022-10-07T15:39:00.651Z,101286.44
2022-10-07T15:44:07.580Z,101277.44
2022-10-07T15:49:09.326Z,101276.81
2022-10-07T15:54:10.890Z,101272.69
2022-10-07T15:59:12.392Z,101270.53
2022-10-07T16:04:14.005Z,101262.09
2022-10-07T16:09:15.508Z,101260.94
2022-10-07T16:14:17.094Z,101262.81
2022-10-07T16:19:18.607Z,101254.34
2022-10-07T16:24:21.529Z,101249.13
2022-10-07T16:29:23.571Z,101245.06
2022-10-07T16:34:25.763Z,101249.81
2022-10-07T16:39:27.265Z,101245.44
2022-10-07T16:44:29.003Z,101243.47
2022-10-07T16:49:30.609Z,101232.81
2022-10-07T16:54:32.143Z,101230.84
2022-10-07T16:59:33.652Z,101235.16
2022-10-07T17:04:35.142Z,101232.50
2022-10-07T17:09:36.625Z,101228.22
2022-10-07T17:14:38.135Z,101225.59
2022-10-07T17:19:39.617Z,101228.22
2022-10-07T17:24:41.108Z,101230.94
2022-10-07T17:29:42.580Z,101230.66
2022-10-07T17:34:45.513Z,101227.88
2022-10-07T17:39:47.188Z,101225.03
2022-10-07T17:44:48.679Z,101239.22
2022-10-07T17:49:50.212Z,101243.47
2022-10-07T17:54:52.085Z,101237.41
2022-10-07T17:59:53.695Z,101231.88
2022-10-07T18:04:55.427Z,101242.59
2022-10-07T18:09:56.960Z,101239.59
2022-10-07T18:14:58.541Z,101245.22
2022-10-07T18:20:00.021Z,101248.16
2022-10-07T18:25:01.955Z,101244.59
2022-10-07T18:30:04.110Z,101251.75
2022-10-07T18:35:05.785Z,101254.19
2022-10-07T18:40:07.850Z,101254.22
2022-10-07T18:45:09.530Z,101257.50
2022-10-07T18:50:11.153Z,101248.53
2022-10-07T18:55:12.714Z,101251.34
2022-10-07T19:00:14.776Z,101259.22
2022-10-07T19:05:16.403Z,101253.47
2022-10-07T19:10:18.071Z,101252.25
2022-10-07T19:15:19.765Z,101246.34
2022-10-07T19:20:21.249Z,101255.94
2022-10-07T19:25:22.742Z,101253.97
2022-10-07T19:30:24.341Z,101253.41
2022-10-07T19:35:25.855Z,101258.31
2022-10-07T19:40:27.409Z,101260.50
2022-10-07T19:45:29.034Z,101254.78
2022-10-07T19:50:31.480Z,101264.06
2022-10-07T19:55:33.715Z,101268.38
2022-10-07T20:00:35.363Z,101257.91
2022-10-07T20:05:38.355Z,101258.25
2022-10-07T20:10:40.013Z,101254.59
2022-10-07T20:15:41.503Z,101259.25
2022-10-07T20:20:43.101Z,101263.09
2022-10-07T20:25:44.600Z,101256.41
2022-10-07T20:30:46.117Z,101261.44
2022-10-07T20:35:47.606Z,101267.66
2022-10-07T20:40:52.531Z,101272.00
2022-10-07T20:45:54.434Z,101264.75
2022-10-07T20:50:55.996Z,101264.19
2022-10-07T20:56:02.517Z,101262.88
2022-10-07T21:01:06.209Z,101260.88
2022-10-07T21:06:08.097Z,101260.25
2022-10-07T21:11:09.735Z,101253.19
2022-10-07T21:16:11.433Z,101254.19
2022-10-07T21:21:13.350Z,101260.63
2022-10-07T21:26:15.646Z,101250.88
2022-10-07T21:31:20.100Z,101246.59
2022-10-07T21:36:23.329Z,101247.09
2022-10-07T21:41:27.821Z,101247.91
2022-10-07T21:46:30.785Z,101242.78
2022-10-07T21:51:32.639Z,101233.06
2022-10-07T21:56:34.408Z,101232.84
2022-10-07T22:01:36.007Z,101231.31
2022-10-07T22:06:37.606Z,101237.66
2022-10-07T22:11:39.625Z,101231.97
2022-10-07T22:16:41.316Z,101236.13
2022-10-07T22:21:43.222Z,101236.63
2022-10-07T22:26:46.952Z,101234.97
2022-10-07T22:31:48.904Z,101236.81
2022-10-07T22:36:50.404Z,101224.09
2022-10-07T22:41:51.987Z,101229.13
2022-10-07T22:46:54.620Z,101214.44
2022-10-07T22:51:56.204Z,101204.63
2022-10-07T22:56:57.755Z,101208.72
2022-10-07T23:01:59.296Z,101206.91
2022-10-07T23:07:00.792Z,101204.16
2022-10-07T23:12:02.586Z,101194.69
2022-10-07T23:17:05.215Z,101195.66
2022-10-07T23:22:06.709Z,101190.88
2022-10-07T23:27:08.334Z,101193.84
2022-10-07T23:32:09.874Z,101198.09
2022-10-07T23:37:11.341Z,101186.34
2022-10-07T23:42:14.073Z,101181.28
2022-10-07T23:47:15.565Z,101172.94
2022-10-07T23:52:17.086Z,101177.50
2022-10-07T23:57:18.597Z,101175.72
